sensor_id;sensor_type;location;lat;lon;timestamp;pressure;altitude;pressure_sealevel;temperature
10058;BMP180;5068;51.286;7.518;2023-04-04T00:00:50;100583.00;;;3.10
10058;BMP180;5068;51.286;7.518;2023-04-04T00:02:24;100586.00;;;3.10
10058;BMP180;5068;51.286;7.518;2023-04-04T00:03:57;100587.00;;;3.00
10058;BMP180;5068;51.286;7.518;2023-04-04T00:05:30;100576.00;;;3.00
10058;BMP180;5068;51.286;7.518;2023-04-04T00:07:04;100576.00;;;3.00
10058;BMP180;5068;51.286;7.518;2023-04-04T00:08:37;100591.00;;;3.00
10058;BMP180;5068;51.286;7.518;2023-04-04T00:10:10;100588.00;;;3.00
10058;BMP180;5068;51.286;7.518;2023-04-04T00:11:45;100586.00;;;2.90
10058;BMP180;5068;51.286;7.518;2023-04-04T00:13:18;100591.00;;;2.90
10058;BMP180;5068;51.286;7.518;2023-04-04T00:14:51;100582.00;;;2.90
10058;BMP180;5068;51.286;7.518;2023-04-04T00:16:24;100594.00;;;2.90
10058;BMP180;5068;51.286;7.518;2023-04-04T00:17:57;100572.00;;;2.80
10058;BMP180;5068;51.286;7.518;2023-04-04T00:19:30;100577.00;;;2.80
10058;BMP180;5068;51.286;7.518;2023-04-04T00:21:03;100579.00;;;2.80
10058;BMP180;5068;51.286;7.518;2023-04-04T00:22:36;100589.00;;;2.80
10058;BMP180;5068;51.286;7.518;2023-04-04T00:24:10;100586.00;;;2.80
10058;BMP180;5068;51.286;7.518;2023-04-04T00:25:48;100580.00;;;2.80
10058;BMP180;5068;51.286;7.518;2023-04-04T00:27:23;100594.00;;;2.80
10058;BMP180;5068;51.286;7.518;2023-04-04T00:28:57;100579.00;;;2.80
10058;BMP180;5068;51.286;7.518;2023-04-04T00:30:30;100586.00;;;2.80
10058;BMP180;5068;51.286;7.518;2023-04-04T00:32:03;100594.00;;;2.80
10058;BMP180;5068;51.286;7.518;2023-04-04T00:33:37;100579.00;;;2.80
10058;BMP180;5068;51.286;7.518;2023-04-04T00:35:11;100577.00;;;2.80
10058;BMP180;5068;51.286;7.518;2023-04-04T00:36:44;100574.00;;;2.80
10058;BMP180;5068;51.286;7.518;2023-04-04T00:38:18;100580.00;;;2.80
10058;BMP180;5068;51.286;7.518;2023-04-04T00:39:50;100574.00;;;2.80
10058;BMP180;5068;51.286;7.518;2023-04-04T00:41:24;100576.00;;;2.80
10058;BMP180;5068;51.286;7.518;2023-04-04T00:42:59;100572.00;;;2.80
10058;BMP180;5068;51.286;7.518;2023-04-04T00:44:32;100582.00;;;2.80
10058;BMP180;5068;51.286;7.518;2023-04-04T00:46:08;100587.00;;;2.70
10058;BMP180;5068;51.286;7.518;2023-04-04T00:47:47;100590.00;;;2.70
10058;BMP180;5068;51.286;7.518;2023-04-04T00:49:20;100591.00;;;2.60
10058;BMP180;5068;51.286;7.518;2023-04-04T00:50:53;100580.00;;;2.60
10058;BMP180;5068;51.286;7.518;2023-04-04T00:52:25;100581.00;;;2.60
10058;BMP180;5068;51.286;7.518;2023-04-04T00:53:59;100582.00;;;2.70
10058;BMP180;5068;51.286;7.518;2023-04-04T00:55:32;100591.00;;;2.60
10058;BMP180;5068;51.286;7.518;2023-04-04T00:57:07;100589.00;;;2.60
10058;BMP180;5068;51.286;7.518;2023-04-04T00:58:43;100591.00;;;2.60
10058;BMP180;5068;51.286;7.518;2023-04-04T01:00:17;100591.00;;;2.50
10058;BMP180;5068;51.286;7.518;2023-04-04T01:01:49;100594.00;;;2.50
10058;BMP180;5068;51.286;7.518;2023-04-04T01:03:22;100590.00;;;2.50
10058;BMP180;5068;51.286;7.518;2023-04-04T01:04:55;100592.00;;;2.50
10058;BMP180;5068;51.286;7.518;2023-04-04T01:06:29;100592.00;;;2.50
10058;BMP180;5068;51.286;7.518;2023-04-04T01:08:04;100589.00;;;2.50
10058;BMP180;5068;51.286;7.518;2023-04-04T01:09:38;100593.00;;;2.50
10058;BMP180;5068;51.286;7.518;2023-04-04T01:11:11;100590.00;;;2.50
10058;BMP180;5068;51.286;7.518;2023-04-04T01:12:45;100583.00;;;2.50
10058;BMP180;5068;51.286;7.518;2023-04-04T01:14:20;100586.00;;;2.40
10058;BMP180;5068;51.286;7.518;2023-04-04T01:15:53;100590.00;;;2.40
10058;BMP180;5068;51.286;7.518;2023-04-04T01:17:27;100574.00;;;2.40
10058;BMP180;5068;51.286;7.518;2023-04-04T01:19:05;100580.00;;;2.40
10058;BMP180;5068;51.286;7.518;2023-04-04T01:20:49;100588.00;;;2.30
10058;BMP180;5068;51.286;7.518;2023-04-04T01:22:27;100582.00;;;2.30
10058;BMP180;5068;51.286;7.518;2023-04-04T01:24:03;100590.00;;;2.30
10058;BMP180;5068;51.286;7.518;2023-04-04T01:25:47;100581.00;;;2.30
10058;BMP180;5068;51.286;7.518;2023-04-04T01:27:20;100566.00;;;2.20
10058;BMP180;5068;51.286;7.518;2023-04-04T01:29:01;100567.00;;;2.20
10058;BMP180;5068;51.286;7.518;2023-04-04T01:30:38;100582.00;;;2.20
10058;BMP180;5068;51.286;7.518;2023-04-04T01:32:18;100568.00;;;2.20
10058;BMP180;5068;51.286;7.518;2023-04-04T01:34:04;100577.00;;;2.20
10058;BMP180;5068;51.286;7.518;2023-04-04T01:35:47;100566.00;;;2.20
10058;BMP180;5068;51.286;7.518;2023-04-04T01:37:30;100569.00;;;2.10
10058;BMP180;5068;51.286;7.518;2023-04-04T01:39:21;100569.00;;;2.10
10058;BMP180;5068;51.286;7.518;2023-04-04T01:41:01;100579.00;;;2.10
10058;BMP180;5068;51.286;7.518;2023-04-04T01:42:38;100576.00;;;2.10
10058;BMP180;5068;51.286;7.518;2023-04-04T01:44:10;100572.00;;;2.10
10058;BMP180;5068;51.286;7.518;2023-04-04T01:45:47;100571.00;;;2.10
10058;BMP180;5068;51.286;7.518;2023-04-04T01:47:21;100576.00;;;2.10
10058;BMP180;5068;51.286;7.518;2023-04-04T01:48:55;100575.00;;;2.00
10058;BMP180;5068;51.286;7.518;2023-04-04T01:50:33;100568.00;;;2.00
10058;BMP180;5068;51.286;7.518;2023-04-04T01:52:06;100575.00;;;2.00
10058;BMP180;5068;51.286;7.518;2023-04-04T01:53:40;100572.00;;;2.00
10058;BMP180;5068;51.286;7.518;2023-04-04T01:55:13;100562.00;;;2.00
10058;BMP180;5068;51.286;7.518;2023-04-04T01:56:48;100568.00;;;2.00
10058;BMP180;5068;51.286;7.518;2023-04-04T01:58:21;100567.00;;;2.10
10058;BMP180;5068;51.286;7.518;2023-04-04T01:59:54;100570.00;;;2.00
10058;BMP180;5068;51.286;7.518;2023-04-04T02:01:28;100559.00;;;2.00
10058;BMP180;5068;51.286;7.518;2023-04-04T02:03:01;100560.00;;;2.00
10058;BMP180;5068;51.286;7.518;2023-04-04T02:04:35;100564.00;;;2.00
10058;BMP180;5068;51.286;7.518;2023-04-04T02:06:08;100563.00;;;2.00
10058;BMP180;5068;51.286;7.518;2023-04-04T02:07:40;100565.00;;;2.00
10058;BMP180;5068;51.286;7.518;2023-04-04T02:09:24;100568.00;;;2.00
10058;BMP180;5068;51.286;7.518;2023-04-04T02:10:57;100564.00;;;2.00
10058;BMP180;5068;51.286;7.518;2023-04-04T02:12:32;100559.00;;;1.90
10058;BMP180;5068;51.286;7.518;2023-04-04T02:14:06;100559.00;;;2.00
10058;BMP180;5068;51.286;7.518;2023-04-04T02:15:40;100561.00;;;1.90
10058;BMP180;5068;51.286;7.518;2023-04-04T02:17:13;100556.00;;;1.90
10058;BMP180;5068;51.286;7.518;2023-04-04T02:18:46;100560.00;;;2.00
10058;BMP180;5068;51.286;7.518;2023-04-04T02:20:19;100556.00;;;2.00
10058;BMP180;5068;51.286;7.518;2023-04-04T02:21:52;100555.00;;;2.00
10058;BMP180;5068;51.286;7.518;2023-04-04T02:23:25;100557.00;;;2.00
10058;BMP180;5068;51.286;7.518;2023-04-04T02:24:58;100551.00;;;2.00
10058;BMP180;5068;51.286;7.518;2023-04-04T02:26:33;100549.00;;;2.00
10058;BMP180;5068;51.286;7.518;2023-04-04T02:28:08;100549.00;;;2.00
10058;BMP180;5068;51.286;7.518;2023-04-04T02:29:42;100553.00;;;2.00
10058;BMP180;5068;51.286;7.518;2023-04-04T02:31:15;100554.00;;;2.00
10058;BMP180;5068;51.286;7.518;2023-04-04T02:32:49;100540.00;;;2.00
10058;BMP180;5068;51.286;7.518;2023-04-04T02:34:23;100548.00;;;1.90
10058;BMP180;5068;51.286;7.518;2023-04-04T02:35:57;100548.00;;;1.90
10058;BMP180;5068;51.286;7.518;2023-04-04T02:37:30;100545.00;;;1.90
10058;BMP180;5068;51.286;7.518;2023-04-04T02:39:03;100551.00;;;1.90
10058;BMP180;5068;51.286;7.518;2023-04-04T02:40:36;100537.00;;;1.90
10058;BMP180;5068;51.286;7.518;2023-04-04T02:42:13;100540.00;;;1.80
10058;BMP180;5068;51.286;7.518;2023-04-04T02:43:47;100538.00;;;1.80
10058;BMP180;5068;51.286;7.518;2023-04-04T02:45:22;100537.00;;;1.80
10058;BMP180;5068;51.286;7.518;2023-04-04T02:47:05;100544.00;;;1.90
10058;BMP180;5068;51.286;7.518;2023-04-04T02:48:38;100546.00;;;1.90
10058;BMP180;5068;51.286;7.518;2023-04-04T02:50:11;100539.00;;;1.80
10058;BMP180;5068;51.286;7.518;2023-04-04T02:51:44;100540.00;;;1.80
10058;BMP180;5068;51.286;7.518;2023-04-04T02:53:17;100545.00;;;1.80
10058;BMP180;5068;51.286;7.518;2023-04-04T02:54:53;100539.00;;;1.70
10058;BMP180;5068;51.286;7.518;2023-04-04T02:56:36;100549.00;;;1.70
10058;BMP180;5068;51.286;7.518;2023-04-04T02:58:09;100543.00;;;1.70
10058;BMP180;5068;51.286;7.518;2023-04-04T02:59:43;100557.00;;;1.70
10058;BMP180;5068;51.286;7.518;2023-04-04T03:01:17;100555.00;;;1.60
10058;BMP180;5068;51.286;7.518;2023-04-04T03:02:53;100549.00;;;1.60
10058;BMP180;5068;51.286;7.518;2023-04-04T03:04:33;100548.00;;;1.60
10058;BMP180;5068;51.286;7.518;2023-04-04T03:06:07;100552.00;;;1.60
10058;BMP180;5068;51.286;7.518;2023-04-04T03:07:39;100547.00;;;1.60
10058;BMP180;5068;51.286;7.518;2023-04-04T03:09:13;100544.00;;;1.60
10058;BMP180;5068;51.286;7.518;2023-04-04T03:10:46;100546.00;;;1.60
10058;BMP180;5068;51.286;7.518;2023-04-04T03:12:20;100552.00;;;1.60
10058;BMP180;5068;51.286;7.518;2023-04-04T03:13:54;100539.00;;;1.60
10058;BMP180;5068;51.286;7.518;2023-04-04T03:15:42;100551.00;;;1.60
10058;BMP180;5068;51.286;7.518;2023-04-04T03:17:19;100547.00;;;1.50
10058;BMP180;5068;51.286;7.518;2023-04-04T03:18:54;100544.00;;;1.50
10058;BMP180;5068;51.286;7.518;2023-04-04T03:20:28;100547.00;;;1.50
10058;BMP180;5068;51.286;7.518;2023-04-04T03:22:02;100542.00;;;1.50
10058;BMP180;5068;51.286;7.518;2023-04-04T03:23:38;100540.00;;;1.40
10058;BMP180;5068;51.286;7.518;2023-04-04T03:25:11;100535.00;;;1.40
10058;BMP180;5068;51.286;7.518;2023-04-04T03:26:44;100532.00;;;1.40
10058;BMP180;5068;51.286;7.518;2023-04-04T03:28:18;100537.00;;;1.40
10058;BMP180;5068;51.286;7.518;2023-04-04T03:29:51;100535.00;;;1.40
10058;BMP180;5068;51.286;7.518;2023-04-04T03:31:26;100532.00;;;1.40
10058;BMP180;5068;51.286;7.518;2023-04-04T03:33:03;100549.00;;;1.40
10058;BMP180;5068;51.286;7.518;2023-04-04T03:34:39;100541.00;;;1.40
10058;BMP180;5068;51.286;7.518;2023-04-04T03:36:12;100545.00;;;1.40
10058;BMP180;5068;51.286;7.518;2023-04-04T03:37:45;100552.00;;;1.40
10058;BMP180;5068;51.286;7.518;2023-04-04T03:39:19;100541.00;;;1.40
10058;BMP180;5068;51.286;7.518;2023-04-04T03:41:00;100530.00;;;1.40
10058;BMP180;5068;51.286;7.518;2023-04-04T03:42:34;100534.00;;;1.30
10058;BMP180;5068;51.286;7.518;2023-04-04T03:44:12;100529.00;;;1.30
10058;BMP180;5068;51.286;7.518;2023-04-04T03:45:45;100530.00;;;1.30
10058;BMP180;5068;51.286;7.518;2023-04-04T03:47:21;100537.00;;;1.30
10058;BMP180;5068;51.286;7.518;2023-04-04T03:48:54;100529.00;;;1.20
10058;BMP180;5068;51.286;7.518;2023-04-04T03:50:28;100526.00;;;1.20
10058;BMP180;5068;51.286;7.518;2023-04-04T03:52:02;100529.00;;;1.20
10058;BMP180;5068;51.286;7.518;2023-04-04T03:53:36;100524.00;;;1.20
10058;BMP180;5068;51.286;7.518;2023-04-04T03:55:09;100522.00;;;1.20
10058;BMP180;5068;51.286;7.518;2023-04-04T03:56:43;100526.00;;;1.20
10058;BMP180;5068;51.286;7.518;2023-04-04T03:58:16;100522.00;;;1.20
10058;BMP180;5068;51.286;7.518;2023-04-04T03:59:48;100514.00;;;1.20
10058;BMP180;5068;51.286;7.518;2023-04-04T04:01:22;100521.00;;;1.20
10058;BMP180;5068;51.286;7.518;2023-04-04T04:02:57;100521.00;;;1.20
10058;BMP180;5068;51.286;7.518;2023-04-04T04:04:30;100511.00;;;1.20
10058;BMP180;5068;51.286;7.518;2023-04-04T04:06:03;100508.00;;;1.20
10058;BMP180;5068;51.286;7.518;2023-04-04T04:07:37;100515.00;;;1.20
10058;BMP180;5068;51.286;7.518;2023-04-04T04:09:10;100516.00;;;1.20
10058;BMP180;5068;51.286;7.518;2023-04-04T04:10:43;100509.00;;;1.20
10058;BMP180;5068;51.286;7.518;2023-04-04T04:12:16;100509.00;;;1.20
10058;BMP180;5068;51.286;7.518;2023-04-04T04:13:50;100504.00;;;1.10
10058;BMP180;5068;51.286;7.518;2023-04-04T04:15:23;100499.00;;;1.10
10058;BMP180;5068;51.286;7.518;2023-04-04T04:16:57;100513.00;;;1.10
10058;BMP180;5068;51.286;7.518;2023-04-04T04:18:31;100512.00;;;1.10
10058;BMP180;5068;51.286;7.518;2023-04-04T04:20:06;100513.00;;;1.10
10058;BMP180;5068;51.286;7.518;2023-04-04T04:21:45;100512.00;;;1.10
10058;BMP180;5068;51.286;7.518;2023-04-04T04:23:18;100506.00;;;1.10
10058;BMP180;5068;51.286;7.518;2023-04-04T04:24:54;100508.00;;;1.10
10058;BMP180;5068;51.286;7.518;2023-04-04T04:26:27;100506.00;;;1.10
10058;BMP180;5068;51.286;7.518;2023-04-04T04:28:00;100507.00;;;1.10
10058;BMP180;5068;51.286;7.518;2023-04-04T04:29:33;100503.00;;;1.00
10058;BMP180;5068;51.286;7.518;2023-04-04T04:31:09;100503.00;;;1.00
10058;BMP180;5068;51.286;7.518;2023-04-04T04:32:49;100500.00;;;1.00
10058;BMP180;5068;51.286;7.518;2023-04-04T04:34:28;100496.00;;;1.00
10058;BMP180;5068;51.286;7.518;2023-04-04T04:36:06;100505.00;;;1.00
10058;BMP180;5068;51.286;7.518;2023-04-04T04:37:50;100516.00;;;1.00
10058;BMP180;5068;51.286;7.518;2023-04-04T04:39:25;100522.00;;;1.00
10058;BMP180;5068;51.286;7.518;2023-04-04T04:41:09;100512.00;;;1.00
10058;BMP180;5068;51.286;7.518;2023-04-04T04:42:47;100509.00;;;0.90
10058;BMP180;5068;51.286;7.518;2023-04-04T04:44:25;100507.00;;;0.90
10058;BMP180;5068;51.286;7.518;2023-04-04T04:46:00;100512.00;;;0.90
10058;BMP180;5068;51.286;7.518;2023-04-04T04:47:33;100511.00;;;0.90
10058;BMP180;5068;51.286;7.518;2023-04-04T04:49:09;100515.00;;;0.90
10058;BMP180;5068;51.286;7.518;2023-04-04T04:50:44;100506.00;;;0.90
10058;BMP180;5068;51.286;7.518;2023-04-04T04:52:20;100502.00;;;0.90
10058;BMP180;5068;51.286;7.518;2023-04-04T04:53:53;100506.00;;;0.90
10058;BMP180;5068;51.286;7.518;2023-04-04T04:55:28;100511.00;;;0.90
10058;BMP180;5068;51.286;7.518;2023-04-04T04:57:09;100503.00;;;0.90
10058;BMP180;5068;51.286;7.518;2023-04-04T04:58:46;100512.00;;;0.90
10058;BMP180;5068;51.286;7.518;2023-04-04T05:00:27;100506.00;;;0.90
10058;BMP180;5068;51.286;7.518;2023-04-04T05:02:00;100506.00;;;0.90
10058;BMP180;5068;51.286;7.518;2023-04-04T05:03:33;100502.00;;;0.90
10058;BMP180;5068;51.286;7.518;2023-04-04T05:05:10;100511.00;;;0.90
10058;BMP180;5068;51.286;7.518;2023-04-04T05:06:45;100515.00;;;0.90
10058;BMP180;5068;51.286;7.518;2023-04-04T05:08:18;100515.00;;;0.90
10058;BMP180;5068;51.286;7.518;2023-04-04T05:10:08;100503.00;;;0.80
10058;BMP180;5068;51.286;7.518;2023-04-04T05:11:42;100517.00;;;0.80
10058;BMP180;5068;51.286;7.518;2023-04-04T05:13:16;100520.00;;;0.80
10058;BMP180;5068;51.286;7.518;2023-04-04T05:14:51;100516.00;;;0.80
10058;BMP180;5068;51.286;7.518;2023-04-04T05:16:25;100514.00;;;0.80
10058;BMP180;5068;51.286;7.518;2023-04-04T05:18:01;100516.00;;;0.80
10058;BMP180;5068;51.286;7.518;2023-04-04T05:19:34;100522.00;;;0.70
10058;BMP180;5068;51.286;7.518;2023-04-04T05:21:08;100532.00;;;0.70
10058;BMP180;5068;51.286;7.518;2023-04-04T05:22:44;100517.00;;;0.70
10058;BMP180;5068;51.286;7.518;2023-04-04T05:24:22;100520.00;;;0.70
10058;BMP180;5068;51.286;7.518;2023-04-04T05:25:55;100523.00;;;0.70
10058;BMP180;5068;51.286;7.518;2023-04-04T05:27:33;100527.00;;;0.60
10058;BMP180;5068;51.286;7.518;2023-04-04T05:29:06;100528.00;;;0.70
10058;BMP180;5068;51.286;7.518;2023-04-04T05:30:44;100527.00;;;0.70
10058;BMP180;5068;51.286;7.518;2023-04-04T05:32:21;100524.00;;;0.70
10058;BMP180;5068;51.286;7.518;2023-04-04T05:34:04;100528.00;;;0.70
10058;BMP180;5068;51.286;7.518;2023-04-04T05:35:40;100539.00;;;0.80
10058;BMP180;5068;51.286;7.518;2023-04-04T05:37:13;100529.00;;;0.80
10058;BMP180;5068;51.286;7.518;2023-04-04T05:38:53;100540.00;;;0.80
10058;BMP180;5068;51.286;7.518;2023-04-04T05:40:29;100541.00;;;0.80
10058;BMP180;5068;51.286;7.518;2023-04-04T05:42:10;100535.00;;;0.80
10058;BMP180;5068;51.286;7.518;2023-04-04T05:43:49;100532.00;;;0.80
10058;BMP180;5068;51.286;7.518;2023-04-04T05:45:26;100528.00;;;0.80
10058;BMP180;5068;51.286;7.518;2023-04-04T05:47:00;100531.00;;;0.80
10058;BMP180;5068;51.286;7.518;2023-04-04T05:48:33;100536.00;;;0.80
10058;BMP180;5068;51.286;7.518;2023-04-04T05:50:07;100545.00;;;0.80
10058;BMP180;5068;51.286;7.518;2023-04-04T05:51:42;100539.00;;;0.80
10058;BMP180;5068;51.286;7.518;2023-04-04T05:53:18;100544.00;;;0.80
10058;BMP180;5068;51.286;7.518;2023-04-04T05:54:55;100547.00;;;0.80
10058;BMP180;5068;51.286;7.518;2023-04-04T05:56:33;100539.00;;;0.90
10058;BMP180;5068;51.286;7.518;2023-04-04T05:58:09;100549.00;;;0.90
10058;BMP180;5068;51.286;7.518;2023-04-04T05:59:54;100540.00;;;0.90
10058;BMP180;5068;51.286;7.518;2023-04-04T06:01:27;100545.00;;;0.90
10058;BMP180;5068;51.286;7.518;2023-04-04T06:03:03;100538.00;;;1.00
10058;BMP180;5068;51.286;7.518;2023-04-04T06:04:37;100549.00;;;1.00
10058;BMP180;5068;51.286;7.518;2023-04-04T06:06:14;100544.00;;;1.00
10058;BMP180;5068;51.286;7.518;2023-04-04T06:07:47;100541.00;;;1.00
10058;BMP180;5068;51.286;7.518;2023-04-04T06:09:20;100538.00;;;1.00
10058;BMP180;5068;51.286;7.518;2023-04-04T06:10:55;100535.00;;;1.10
10058;BMP180;5068;51.286;7.518;2023-04-04T06:12:28;100547.00;;;1.10
10058;BMP180;5068;51.286;7.518;2023-04-04T06:14:01;100547.00;;;1.10
10058;BMP180;5068;51.286;7.518;2023-04-04T06:15:34;100540.00;;;1.10
10058;BMP180;5068;51.286;7.518;2023-04-04T06:17:07;100561.00;;;1.20
10058;BMP180;5068;51.286;7.518;2023-04-04T06:18:40;100561.00;;;1.20
10058;BMP180;5068;51.286;7.518;2023-04-04T06:20:14;100554.00;;;1.20
10058;BMP180;5068;51.286;7.518;2023-04-04T06:21:47;100553.00;;;1.20
10058;BMP180;5068;51.286;7.518;2023-04-04T06:23:20;100554.00;;;1.20
10058;BMP180;5068;51.286;7.518;2023-04-04T06:24:54;100558.00;;;1.20
10058;BMP180;5068;51.286;7.518;2023-04-04T06:26:31;100545.00;;;1.20
10058;BMP180;5068;51.286;7.518;2023-04-04T06:28:06;100548.00;;;1.30
10058;BMP180;5068;51.286;7.518;2023-04-04T06:29:40;100558.00;;;1.30
10058;BMP180;5068;51.286;7.518;2023-04-04T06:31:13;100555.00;;;1.30
10058;BMP180;5068;51.286;7.518;2023-04-04T06:32:47;100554.00;;;1.30
10058;BMP180;5068;51.286;7.518;2023-04-04T06:34:24;100560.00;;;1.30
10058;BMP180;5068;51.286;7.518;2023-04-04T06:36:00;100561.00;;;1.40
10058;BMP180;5068;51.286;7.518;2023-04-04T06:37:33;100569.00;;;1.40
10058;BMP180;5068;51.286;7.518;2023-04-04T06:39:21;100570.00;;;1.40
10058;BMP180;5068;51.286;7.518;2023-04-04T06:40:56;100568.00;;;1.40
10058;BMP180;5068;51.286;7.518;2023-04-04T06:42:31;100567.00;;;1.50
10058;BMP180;5068;51.286;7.518;2023-04-04T06:44:07;100566.00;;;1.50
10058;BMP180;5068;51.286;7.518;2023-04-04T06:45:41;100574.00;;;1.60
10058;BMP180;5068;51.286;7.518;2023-04-04T06:47:15;100567.00;;;1.60
10058;BMP180;5068;51.286;7.518;2023-04-04T06:48:48;100566.00;;;1.60
10058;BMP180;5068;51.286;7.518;2023-04-04T06:50:22;100570.00;;;1.60
10058;BMP180;5068;51.286;7.518;2023-04-04T06:51:55;100575.00;;;1.70
10058;BMP180;5068;51.286;7.518;2023-04-04T06:53:32;100566.00;;;1.70
10058;BMP180;5068;51.286;7.518;2023-04-04T06:55:06;100566.00;;;1.70
10058;BMP180;5068;51.286;7.518;2023-04-04T06:56:40;100560.00;;;1.80
10058;BMP180;5068;51.286;7.518;2023-04-04T06:58:16;100571.00;;;1.80
10058;BMP180;5068;51.286;7.518;2023-04-04T06:59:49;100565.00;;;1.80
10058;BMP180;5068;51.286;7.518;2023-04-04T07:01:23;100564.00;;;1.90
10058;BMP180;5068;51.286;7.518;2023-04-04T07:02:58;100577.00;;;2.00
10058;BMP180;5068;51.286;7.518;2023-04-04T07:04:43;100571.00;;;2.00
10058;BMP180;5068;51.286;7.518;2023-04-04T07:06:16;100572.00;;;2.10
10058;BMP180;5068;51.286;7.518;2023-04-04T07:07:51;100562.00;;;2.20
10058;BMP180;5068;51.286;7.518;2023-04-04T07:09:25;100563.00;;;2.20
10058;BMP180;5068;51.286;7.518;2023-04-04T07:11:00;100566.00;;;2.30
10058;BMP180;5068;51.286;7.518;2023-04-04T07:12:34;100561.00;;;2.40
10058;BMP180;5068;51.286;7.518;2023-04-04T07:14:08;100561.00;;;2.50
10058;BMP180;5068;51.286;7.518;2023-04-04T07:15:45;100567.00;;;2.60
10058;BMP180;5068;51.286;7.518;2023-04-04T07:17:19;100563.00;;;2.60
10058;BMP180;5068;51.286;7.518;2023-04-04T07:18:56;100564.00;;;2.70
10058;BMP180;5068;51.286;7.518;2023-04-04T07:20:29;100571.00;;;2.80
10058;BMP180;5068;51.286;7.518;2023-04-04T07:22:03;100561.00;;;2.80
10058;BMP180;5068;51.286;7.518;2023-04-04T07:23:36;100562.00;;;2.90
10058;BMP180;5068;51.286;7.518;2023-04-04T07:25:10;100557.00;;;3.00
10058;BMP180;5068;51.286;7.518;2023-04-04T07:26:44;100564.00;;;3.10
10058;BMP180;5068;51.286;7.518;2023-04-04T07:28:19;100554.00;;;3.10
10058;BMP180;5068;51.286;7.518;2023-04-04T07:29:54;100554.00;;;3.20
10058;BMP180;5068;51.286;7.518;2023-04-04T07:31:27;100552.00;;;3.30
10058;BMP180;5068;51.286;7.518;2023-04-04T07:33:01;100558.00;;;3.30
10058;BMP180;5068;51.286;7.518;2023-04-04T07:34:35;100550.00;;;3.40
10058;BMP180;5068;51.286;7.518;2023-04-04T07:36:08;100559.00;;;3.50
10058;BMP180;5068;51.286;7.518;2023-04-04T07:37:42;100557.00;;;3.50
10058;BMP180;5068;51.286;7.518;2023-04-04T07:39:15;100553.00;;;3.60
10058;BMP180;5068;51.286;7.518;2023-04-04T07:40:49;100555.00;;;3.70
10058;BMP180;5068;51.286;7.518;2023-04-04T07:42:22;100563.00;;;3.80
10058;BMP180;5068;51.286;7.518;2023-04-04T07:43:56;100554.00;;;3.90
10058;BMP180;5068;51.286;7.518;2023-04-04T07:45:30;100555.00;;;4.00
10058;BMP180;5068;51.286;7.518;2023-04-04T07:47:05;100552.00;;;4.10
10058;BMP180;5068;51.286;7.518;2023-04-04T07:48:41;100545.00;;;4.20
10058;BMP180;5068;51.286;7.518;2023-04-04T07:50:15;100554.00;;;4.30
10058;BMP180;5068;51.286;7.518;2023-04-04T07:51:48;100549.00;;;4.40
10058;BMP180;5068;51.286;7.518;2023-04-04T07:53:21;100553.00;;;4.50
10058;BMP180;5068;51.286;7.518;2023-04-04T07:54:55;100550.00;;;4.60
10058;BMP180;5068;51.286;7.518;2023-04-04T07:56:28;100547.00;;;4.70
10058;BMP180;5068;51.286;7.518;2023-04-04T07:58:01;100547.00;;;4.80
10058;BMP180;5068;51.286;7.518;2023-04-04T07:59:34;100554.00;;;4.90
10058;BMP180;5068;51.286;7.518;2023-04-04T08:01:09;100541.00;;;5.00
10058;BMP180;5068;51.286;7.518;2023-04-04T08:02:42;100547.00;;;5.10
10058;BMP180;5068;51.286;7.518;2023-04-04T08:04:17;100538.00;;;5.30
10058;BMP180;5068;51.286;7.518;2023-04-04T08:05:50;100544.00;;;5.40
10058;BMP180;5068;51.286;7.518;2023-04-04T08:07:23;100542.00;;;5.50
10058;BMP180;5068;51.286;7.518;2023-04-04T08:08:59;100539.00;;;5.60
10058;BMP180;5068;51.286;7.518;2023-04-04T08:10:32;100538.00;;;5.80
10058;BMP180;5068;51.286;7.518;2023-04-04T08:12:06;100535.00;;;5.90
10058;BMP180;5068;51.286;7.518;2023-04-04T08:13:39;100537.00;;;6.00
10058;BMP180;5068;51.286;7.518;2023-04-04T08:15:12;100541.00;;;6.10
10058;BMP180;5068;51.286;7.518;2023-04-04T08:16:47;100531.00;;;6.20
10058;BMP180;5068;51.286;7.518;2023-04-04T08:18:20;100536.00;;;6.30
10058;BMP180;5068;51.286;7.518;2023-04-04T08:19:53;100523.00;;;6.50
10058;BMP180;5068;51.286;7.518;2023-04-04T08:21:27;100528.00;;;6.60
10058;BMP180;5068;51.286;7.518;2023-04-04T08:23:00;100525.00;;;6.70
10058;BMP180;5068;51.286;7.518;2023-04-04T08:24:33;100521.00;;;6.80
10058;BMP180;5068;51.286;7.518;2023-04-04T08:26:07;100521.00;;;6.90
10058;BMP180;5068;51.286;7.518;2023-04-04T08:27:40;100509.00;;;7.00
10058;BMP180;5068;51.286;7.518;2023-04-04T08:29:16;100513.00;;;7.10
10058;BMP180;5068;51.286;7.518;2023-04-04T08:30:51;100509.00;;;7.20
10058;BMP180;5068;51.286;7.518;2023-04-04T08:32:27;100514.00;;;7.40
10058;BMP180;5068;51.286;7.518;2023-04-04T08:34:00;100514.00;;;7.50
10058;BMP180;5068;51.286;7.518;2023-04-04T08:35:34;100513.00;;;7.60
10058;BMP180;5068;51.286;7.518;2023-04-04T08:37:08;100503.00;;;7.70
10058;BMP180;5068;51.286;7.518;2023-04-04T08:38:41;100503.00;;;7.80
10058;BMP180;5068;51.286;7.518;2023-04-04T08:40:16;100496.00;;;7.80
10058;BMP180;5068;51.286;7.518;2023-04-04T08:41:56;100508.00;;;7.90
10058;BMP180;5068;51.286;7.518;2023-04-04T08:43:35;100527.00;;;8.00
10058;BMP180;5068;51.286;7.518;2023-04-04T08:45:11;100515.00;;;8.10
10058;BMP180;5068;51.286;7.518;2023-04-04T08:46:44;100515.00;;;8.20
10058;BMP180;5068;51.286;7.518;2023-04-04T08:48:33;100508.00;;;8.20
10058;BMP180;5068;51.286;7.518;2023-04-04T08:50:07;100511.00;;;8.30
10058;BMP180;5068;51.286;7.518;2023-04-04T08:51:43;100524.00;;;8.40
10058;BMP180;5068;51.286;7.518;2023-04-04T08:53:18;100523.00;;;8.40
10058;BMP180;5068;51.286;7.518;2023-04-04T08:54:53;100519.00;;;8.50
10058;BMP180;5068;51.286;7.518;2023-04-04T08:56:28;100531.00;;;8.50
10058;BMP180;5068;51.286;7.518;2023-04-04T08:58:03;100528.00;;;8.60
10058;BMP180;5068;51.286;7.518;2023-04-04T08:59:37;100509.00;;;8.60
10058;BMP180;5068;51.286;7.518;2023-04-04T09:01:11;100518.00;;;8.70
10058;BMP180;5068;51.286;7.518;2023-04-04T09:02:52;100511.00;;;8.80
10058;BMP180;5068;51.286;7.518;2023-04-04T09:04:30;100506.00;;;8.90
10058;BMP180;5068;51.286;7.518;2023-04-04T09:06:04;100512.00;;;8.90
10058;BMP180;5068;51.286;7.518;2023-04-04T09:07:38;100530.00;;;9.00
10058;BMP180;5068;51.286;7.518;2023-04-04T09:09:13;100512.00;;;9.00
10058;BMP180;5068;51.286;7.518;2023-04-04T09:10:49;100523.00;;;9.00
10058;BMP180;5068;51.286;7.518;2023-04-04T09:12:24;100527.00;;;9.10
10058;BMP180;5068;51.286;7.518;2023-04-04T09:14:00;100521.00;;;9.10
10058;BMP180;5068;51.286;7.518;2023-04-04T09:15:37;100524.00;;;9.20